createdAt,value
2022-10-22T00:02:27.584Z,92622.97
2022-10-22T00:04:54.595Z,92615.06
2022-10-22T00:07:21.234Z,92621.91
2022-10-22T00:09:47.642Z,92621.38
2022-10-22T00:12:15.370Z,92602.44
2022-10-22T00:14:42.984Z,92584.25
2022-10-22T00:17:11.477Z,92584.00
2022-10-22T00:19:38.936Z,92587.94
2022-10-22T00:22:05.794Z,92589.28
2022-10-22T00:24:33.842Z,92612.97
2022-10-22T00:27:00.518Z,92620.84
2022-10-22T00:29:27.072Z,92617.22
2022-10-22T00:31:53.462Z,92627.25
2022-10-22T00:34:22.179Z,92636.22
2022-10-22T00:36:50.101Z,92631.78
2022-10-22T00:39:18.297Z,92648.84
2022-10-22T00:41:46.944Z,92658.63
2022-10-22T00:44:50.804Z,92662.81
2022-10-22T00:47:18.776Z,92657.03
2022-10-22T00:49:46.741Z,92661.25
2022-10-22T00:52:14.070Z,92653.88
2022-10-22T00:54:41.561Z,92658.84
2022-10-22T00:57:08.710Z,92674.13
2022-10-22T00:59:35.522Z,92668.03
2022-10-22T01:02:01.940Z,92680.13
2022-10-22T01:04:28.331Z,92675.16
2022-10-22T01:06:54.780Z,92683.56
2022-10-22T01:09:43.198Z,92688.31
2022-10-22T01:12:23.127Z,92685.66
2022-10-22T01:15:07.833Z,92683.03
2022-10-22T01:17:43.051Z,92686.19
2022-10-22T01:20:35.593Z,92685.66
2022-10-22T01:23:22.225Z,92680.41
2022-10-22T01:25:58.381Z,92672.78
2022-10-22T01:28:49.640Z,92657.53
2022-10-22T01:31:18.081Z,92651.50
2022-10-22T01:33:47.748Z,92641.47
2022-10-22T01:36:16.631Z,92625.69
2022-10-22T01:38:45.926Z,92633.88
2022-10-22T01:41:13.934Z,92638.84
2022-10-22T01:43:40.361Z,92640.19
2022-10-22T01:46:07.625Z,92638.63
2022-10-22T01:48:37.030Z,92642.56
2022-10-22T01:51:03.710Z,92632.56
2022-10-22T01:53:33.224Z,92644.66
2022-10-22T01:56:17.680Z,92665.72
2022-10-22T01:59:04.491Z,92680.97
2022-10-22T02:01:41.443Z,92690.47
2022-10-22T02:04:18.171Z,92685.22
2022-10-22T02:06:47.732Z,92669.44
2022-10-22T02:09:17.636Z,92664.72
2022-10-22T02:11:45.859Z,92675.75
2022-10-22T02:14:14.879Z,92667.84
2022-10-22T02:16:44.777Z,92677.06
2022-10-22T02:19:25.198Z,92683.09
2022-10-22T02:21:52.737Z,92685.47
2022-10-22T02:24:20.273Z,92700.47
2022-10-22T02:27:06.667Z,92704.16
2022-10-22T02:29:40.787Z,92718.91
2022-10-22T02:32:11.272Z,92723.09
2022-10-22T02:34:38.335Z,92719.66
2022-10-22T02:37:06.411Z,92709.94
2022-10-22T02:39:33.910Z,92694.41
2022-10-22T02:42:02.341Z,92684.94
2022-10-22T02:44:28.810Z,92694.94
2022-10-22T02:46:55.509Z,92697.81
2022-10-22T02:49:22.111Z,92694.13
2022-10-22T02:51:48.789Z,92680.47
2022-10-22T02:54:15.374Z,92673.13
2022-10-22T02:56:42.125Z,92672.84
2022-10-22T02:59:08.520Z,92673.66
2022-10-22T03:01:34.919Z,92670.50
2022-10-22T03:04:01.343Z,92667.38
2022-10-22T03:06:27.747Z,92673.13
2022-10-22T03:08:55.679Z,92665.25
2022-10-22T03:11:22.169Z,92668.94
2022-10-22T03:13:48.583Z,92665.25
2022-10-22T03:16:14.978Z,92671.28
2022-10-22T03:18:41.358Z,92672.59
2022-10-22T03:21:25.292Z,92673.13
2022-10-22T03:23:52.283Z,92667.56
2022-10-22T03:26:18.829Z,92671.00
2022-10-22T03:28:46.710Z,92679.91
2022-10-22T03:31:13.247Z,92675.16
2022-10-22T03:33:39.627Z,92681.25
2022-10-22T03:36:07.806Z,92669.91
2022-10-22T03:38:37.115Z,92670.44
2022-10-22T03:41:03.890Z,92669.16
2022-10-22T03:43:30.450Z,92672.56
2022-10-22T03:45:56.867Z,92676.78
2022-10-22T03:48:23.254Z,92675.72
2022-10-22T03:50:49.682Z,92673.09
2022-10-22T03:53:16.082Z,92670.47
2022-10-22T03:55:42.778Z,92668.88
2022-10-22T03:58:09.531Z,92666.53
2022-10-22T04:00:36.221Z,92671.00
2022-10-22T04:03:02.916Z,92675.75
2022-10-22T04:05:29.369Z,92678.13
2022-10-22T04:07:55.791Z,92681.81
2022-10-22T04:10:22.179Z,92684.44
2022-10-22T04:12:48.627Z,92676.53
2022-10-22T04:15:15.062Z,92674.19
2022-10-22T04:17:41.823Z,92679.97
2022-10-22T04:20:08.952Z,92673.13
2022-10-22T04:22:35.991Z,92670.50
2022-10-22T04:25:04.641Z,92675.25
2022-10-22T04:27:32.324Z,92674.22
2022-10-22T04:29:58.907Z,92670.03
2022-10-22T04:32:26.815Z,92666.34
2022-10-22T04:34:53.219Z,92660.84
2022-10-22T04:37:20.337Z,92668.47
2022-10-22T04:39:46.746Z,92666.88
2022-10-22T04:42:13.206Z,92657.44
2022-10-22T04:44:39.639Z,92667.94
2022-10-22T04:47:06.058Z,92671.38
2022-10-22T04:49:32.433Z,92667.94
2022-10-22T04:51:58.870Z,92661.91
2022-10-22T04:54:27.801Z,92666.13
2022-10-22T04:56:58.378Z,92669.25
2022-10-22T04:59:24.777Z,92674.00
2022-10-22T05:01:51.181Z,92685.84
2022-10-22T05:04:19.542Z,92694.25
2022-10-22T05:06:46.247Z,92690.03
2022-10-22T05:09:16.258Z,92686.34
2022-10-22T05:11:48.474Z,92687.94
2022-10-22T05:14:18.523Z,92680.31
2022-10-22T05:16:47.678Z,92679.00
2022-10-22T05:19:26.663Z,92691.09
2022-10-22T05:21:55.306Z,92685.31
2022-10-22T05:24:22.063Z,92681.34
2022-10-22T05:26:50.804Z,92690.53
2022-10-22T05:29:17.219Z,92689.47
2022-10-22T05:31:43.631Z,92698.94
2022-10-22T05:34:10.126Z,92700.28
2022-10-22T05:36:36.793Z,92710.78
2022-10-22T05:39:03.773Z,92708.41
2022-10-22T05:41:30.333Z,92715.47
2022-10-22T05:43:58.425Z,92712.28
2022-10-22T05:46:28.196Z,92730.47
2022-10-22T05:48:59.762Z,92721.50
2022-10-22T05:51:31.646Z,92719.69
2022-10-22T05:54:01.798Z,92731.50
2022-10-22T05:56:29.976Z,92733.06
2022-10-22T05:58:56.809Z,92735.19
2022-10-22T06:01:27.302Z,92740.72
2022-10-22T06:03:58.713Z,92744.66
2022-10-22T06:06:31.313Z,92740.97
2022-10-22T06:09:02.364Z,92748.09
2022-10-22T06:11:32.485Z,92744.13
2022-10-22T06:14:01.486Z,92750.97
2022-10-22T06:16:29.950Z,92745.47
2022-10-22T06:18:58.489Z,92760.47
2022-10-22T06:21:24.888Z,92757.84
2022-10-22T06:23:51.271Z,92764.69
2022-10-22T06:26:17.876Z,92774.41
2022-10-22T06:28:44.326Z,92788.06
2022-10-22T06:31:10.767Z,92786.25
2022-10-22T06:33:42.221Z,92793.34
2022-10-22T06:36:14.755Z,92797.28
2022-10-22T06:38:41.688Z,92798.34
2022-10-22T06:41:13.726Z,92797.28
2022-10-22T06:43:41.102Z,92792.28
2022-10-22T06:46:14.827Z,92798.88
2022-10-22T06:48:49.346Z,92802.25
2022-10-22T06:51:15.758Z,92797.78
2022-10-22T06:53:42.183Z,92798.56
2022-10-22T06:56:11.128Z,92804.09
2022-10-22T06:58:37.714Z,92806.72
2022-10-22T07:01:09.711Z,92804.59
2022-10-22T07:03:36.652Z,92806.94
2022-10-22T07:06:05.542Z,92815.63
2022-10-22T07:08:32.890Z,92811.41
2022-10-22T07:11:07.020Z,92822.19
2022-10-22T07:13:33.841Z,92827.22
2022-10-22T07:16:00.246Z,92829.81
2022-10-22T07:18:26.843Z,92835.63
2022-10-22T07:20:53.460Z,92841.94
2022-10-22T07:23:19.851Z,92846.66
2022-10-22T07:25:46.465Z,92844.59
2022-10-22T07:28:13.725Z,92846.19
2022-10-22T07:30:40.296Z,92853.53
2022-10-22T07:33:07.385Z,92848.28
2022-10-22T07:35:34.416Z,92851.94
2022-10-22T07:38:01.091Z,92845.63
2022-10-22T07:40:27.542Z,92850.09
2022-10-22T07:42:53.931Z,92847.69
2022-10-22T07:45:20.359Z,92848.44
2022-10-22T07:47:47.977Z,92850.25
2022-10-22T07:50:15.032Z,92855.75
2022-10-22T07:52:41.789Z,92860.22
2022-10-22T07:55:08.874Z,92855.44
2022-10-22T07:57:37.134Z,92859.66
2022-10-22T08:00:05.827Z,92858.03
2022-10-22T08:02:38.673Z,92858.53
2022-10-22T08:05:05.911Z,92863.78
2022-10-22T08:07:32.395Z,92865.84
2022-10-22T08:09:58.815Z,92855.53
2022-10-22T08:12:25.339Z,92866.56
2022-10-22T08:14:51.769Z,92863.66
2022-10-22T08:17:18.175Z,92860.47
2022-10-22T08:19:44.626Z,92864.63
2022-10-22T08:22:11.027Z,92870.44
2022-10-22T08:24:37.562Z,92872.00
2022-10-22T08:27:04.339Z,92870.72
2022-10-22T08:29:30.764Z,92871.22
2022-10-22T08:31:57.354Z,92872.25
2022-10-22T08:34:23.736Z,92863.00
2022-10-22T08:36:50.159Z,92866.66
2022-10-22T08:39:16.577Z,92872.72
2022-10-22T08:42:16.477Z,92877.13
2022-10-22T08:44:48.986Z,92876.59
2022-10-22T08:47:37.525Z,92874.75
2022-10-22T08:50:04.743Z,92880.28
2022-10-22T08:52:34.240Z,92873.69
2022-10-22T08:55:02.423Z,92877.09
2022-10-22T09:00:15.200Z,92872.84
2022-10-22T09:03:19.521Z,92876.47
2022-10-22T09:06:02.367Z,92880.13
2022-10-22T09:08:29.781Z,92876.50
2022-10-22T09:11:03.391Z,92888.28
2022-10-22T09:13:30.227Z,92900.63
2022-10-22T09:16:00.956Z,92886.34
2022-10-22T09:18:42.270Z,92893.72
2022-10-22T09:21:24.027Z,92894.16
2022-10-22T09:24:00.930Z,92891.25
2022-10-22T09:26:27.634Z,92897.78
2022-10-22T09:28:54.058Z,92896.66
2022-10-22T09:31:20.532Z,92897.91
2022-10-22T09:33:48.952Z,92898.59
2022-10-22T09:36:22.366Z,92903.56
2022-10-22T09:38:53.242Z,92903.88
2022-10-22T09:41:23.041Z,92911.91
2022-10-22T09:43:49.789Z,92909.94
2022-10-22T09:46:22.286Z,92906.91
2022-10-22T09:48:57.923Z,92911.00
2022-10-22T09:51:37.477Z,92920.63
2022-10-22T09:54:18.509Z,92920.88
2022-10-22T09:56:56.275Z,92923.66
2022-10-22T09:59:29.855Z,92922.81
2022-10-22T10:02:20.239Z,92923.97
2022-10-22T10:04:53.147Z,92943.41
2022-10-22T10:07:25.574Z,92937.94
2022-10-22T10:09:53.909Z,92946.56
2022-10-22T10:15:29.405Z,92951.06
2022-10-22T10:18:15.654Z,92937.03
2022-10-22T10:21:05.113Z,92949.66
2022-10-22T10:23:41.878Z,92959.47
2022-10-22T10:26:49.116Z,92944.94
2022-10-22T10:29:26.446Z,92953.50
2022-10-22T10:32:23.561Z,92950.22
2022-10-22T10:35:04.163Z,92950.13
2022-10-22T10:40:48.448Z,92953.59
2022-10-22T10:43:40.407Z,92953.00
2022-10-22T10:46:42.186Z,92953.88
2022-10-22T10:49:16.653Z,92954.41
2022-10-22T10:52:09.342Z,92956.75
2022-10-22T10:54:55.663Z,92953.66
2022-10-22T10:57:36.211Z,92953.38
2022-10-22T11:00:16.153Z,92961.16
2022-10-22T11:02:52.182Z,92959.69
2022-10-22T11:05:21.638Z,92959.75
2022-10-22T11:08:03.273Z,92950.06
2022-10-22T11:10:54.830Z,92957.63
2022-10-22T11:13:26.251Z,92951.41
2022-10-22T11:16:03.044Z,92936.41
2022-10-22T11:18:38.773Z,92937.00
2022-10-22T11:21:17.873Z,92932.88
2022-10-22T11:23:50.053Z,92932.63
2022-10-22T11:26:29.075Z,92930.78
2022-10-22T11:28:58.993Z,92931.69
2022-10-22T11:31:26.018Z,92928.78
2022-10-22T11:34:04.847Z,92932.44
2022-10-22T11:36:43.450Z,92927.63
2022-10-22T11:39:30.332Z,92930.34
2022-10-22T11:41:59.525Z,92929.75
2022-10-22T11:44:30.055Z,92930.63
2022-10-22T11:46:58.500Z,92935.41
2022-10-22T11:49:28.257Z,92935.97
2022-10-22T11:52:22.962Z,92931.50
2022-10-22T11:54:55.343Z,92940.31
2022-10-22T11:57:26.686Z,92938.66
2022-10-22T11:59:58.263Z,92934.31
2022-10-22T12:02:39.085Z,92937.91
2022-10-22T12:05:39.274Z,92938.56
2022-10-22T12:08:16.297Z,92937.53
2022-10-22T12:10:57.347Z,92940.03
2022-10-22T12:13:27.620Z,92940.94
2022-10-22T12:15:58.671Z,92939.28
2022-10-22T12:18:41.003Z,92944.44
2022-10-22T12:21:13.044Z,92939.78
2022-10-22T12:23:39.852Z,92948.34
2022-10-22T12:26:06.351Z,92935.66
2022-10-22T12:28:41.637Z,92930.78
2022-10-22T12:31:16.243Z,92930.13
2022-10-22T12:33:42.674Z,92927.78
2022-10-22T12:36:18.977Z,92924.03
2022-10-22T12:38:49.230Z,92930.50
2022-10-22T12:41:15.625Z,92929.84
2022-10-22T12:43:42.079Z,92928.47
2022-10-22T12:46:14.247Z,92929.53
2022-10-22T12:48:44.133Z,92939.53
2022-10-22T12:51:17.935Z,92931.53
2022-10-22T12:53:47.905Z,92927.94
2022-10-22T12:56:20.148Z,92927.16
2022-10-22T12:58:52.777Z,92923.88
2022-10-22T13:01:19.531Z,92921.84
2022-10-22T13:03:52.470Z,92932.66
2022-10-22T13:06:18.797Z,92921.56
2022-10-22T13:09:17.339Z,92926.41
2022-10-22T13:12:04.500Z,92927.53
2022-10-22T13:14:36.131Z,92920.13
2022-10-22T13:17:23.971Z,92926.09
2022-10-22T13:19:53.062Z,92925.16
2022-10-22T13:22:40.883Z,92925.28
2022-10-22T13:25:17.070Z,92921.50
2022-10-22T13:27:44.866Z,92921.66
2022-10-22T13:30:20.127Z,92913.84
2022-10-22T13:32:52.262Z,92912.91
2022-10-22T13:35:23.211Z,92910.63
2022-10-22T13:37:49.707Z,92911.94
2022-10-22T13:40:16.479Z,92909.38
2022-10-22T13:42:43.152Z,92912.56
2022-10-22T13:45:09.950Z,92905.94
2022-10-22T13:47:36.427Z,92902.16
2022-10-22T13:50:10.198Z,92901.47
2022-10-22T13:52:44.000Z,92901.38
2022-10-22T13:55:16.350Z,92904.22
2022-10-22T14:00:16.663Z,92905.09
2022-10-22T14:02:44.712Z,92901.16
2022-10-22T14:05:11.352Z,92906.34
2022-10-22T14:07:39.998Z,92909.09
2022-10-22T14:10:23.396Z,92905.09
2022-10-22T14:12:53.373Z,92899.38
2022-10-22T14:15:27.499Z,92898.84
2022-10-22T14:17:57.423Z,92897.25
2022-10-22T14:20:27.972Z,92902.44
2022-10-22T14:22:54.892Z,92906.44
2022-10-22T14:25:25.814Z,92910.75
2022-10-22T14:27:52.317Z,92906.78
2022-10-22T14:30:21.713Z,92904.41
2022-10-22T14:32:48.823Z,92911.03
2022-10-22T14:35:22.759Z,92907.03
2022-10-22T14:37:49.871Z,92910.28
2022-10-22T14:40:19.247Z,92913.84
2022-10-22T14:42:48.265Z,92907.44
2022-10-22T14:45:23.163Z,92911.69
2022-10-22T14:47:51.230Z,92908.63
2022-10-22T14:50:18.570Z,92903.06
2022-10-22T14:52:45.378Z,92906.31
2022-10-22T14:55:13.643Z,92907.00
2022-10-22T14:57:40.976Z,92911.59
2022-10-22T15:00:11.656Z,92911.69
2022-10-22T15:02:38.075Z,92903.78
2022-10-22T15:05:05.110Z,92908.13
2022-10-22T15:07:31.502Z,92892.22
2022-10-22T15:09:57.891Z,92897.00
2022-10-22T15:12:24.377Z,92893.19
2022-10-22T15:14:50.810Z,92897.72
2022-10-22T15:17:18.121Z,92890.81
2022-10-22T15:19:44.681Z,92889.78
2022-10-22T15:22:12.472Z,92888.16
2022-10-22T15:24:39.577Z,92893.81
2022-10-22T15:27:06.464Z,92900.41
2022-10-22T15:29:32.963Z,92900.19
2022-10-22T15:32:00.410Z,92891.63
2022-10-22T15:34:30.145Z,92898.63
2022-10-22T15:36:59.246Z,92901.00
2022-10-22T15:39:26.274Z,92901.16
2022-10-22T15:41:54.119Z,92904.78
2022-10-22T15:44:25.121Z,92900.06
2022-10-22T15:46:51.847Z,92908.03
2022-10-22T15:49:18.994Z,92910.75
2022-10-22T15:51:45.547Z,92913.19
2022-10-22T15:54:20.079Z,92920.59
2022-10-22T15:56:46.729Z,92916.34
2022-10-22T15:59:15.316Z,92915.44
2022-10-22T16:01:42.754Z,92923.66
2022-10-22T16:04:09.797Z,92923.22
2022-10-22T16:06:42.173Z,92924.03
2022-10-22T16:09:12.392Z,92929.41
2022-10-22T16:11:41.422Z,92921.31
2022-10-22T16:14:09.891Z,92931.28
2022-10-22T16:16:39.353Z,92930.09
2022-10-22T16:19:06.497Z,92935.22
2022-10-22T16:21:32.907Z,92938.16
2022-10-22T16:24:05.877Z,92942.69
2022-10-22T16:26:33.467Z,92934.19
2022-10-22T16:28:59.895Z,92933.97
2022-10-22T16:31:26.473Z,92929.28
2022-10-22T16:33:53.398Z,92943.97
2022-10-22T16:36:21.127Z,92942.28
2022-10-22T16:38:48.626Z,92940.25
2022-10-22T16:41:20.814Z,92938.06
2022-10-22T16:43:49.443Z,92937.91
2022-10-22T16:46:17.568Z,92936.56
2022-10-22T16:48:51.954Z,92936.22
2022-10-22T16:51:21.598Z,92941.91
2022-10-22T16:53:48.447Z,92940.13
2022-10-22T16:56:16.657Z,92942.88
2022-10-22T16:58:45.723Z,92946.09
2022-10-22T17:01:15.886Z,92952.53
2022-10-22T17:03:44.727Z,92950.00
2022-10-22T17:06:11.900Z,92950.97
2022-10-22T17:08:39.818Z,92947.09
2022-10-22T17:11:17.254Z,92948.19
2022-10-22T17:13:46.243Z,92947.72
2022-10-22T17:16:15.482Z,92946.78
2022-10-22T17:18:42.926Z,92961.13
2022-10-22T17:21:11.147Z,92956.78
2022-10-22T17:23:37.652Z,92961.81
2022-10-22T17:26:07.253Z,92960.78
2022-10-22T17:28:38.483Z,92964.00
2022-10-22T17:31:21.702Z,92963.06
2022-10-22T17:33:50.087Z,92960.75
2022-10-22T17:36:17.989Z,92961.56
2022-10-22T17:38:48.667Z,92963.66
2022-10-22T17:41:17.913Z,92971.81
2022-10-22T17:46:19.238Z,92960.63
2022-10-22T17:48:49.906Z,92958.25
2022-10-22T17:51:17.126Z,92967.22
2022-10-22T17:53:45.680Z,92955.91
2022-10-22T17:56:20.415Z,92961.25
2022-10-22T17:58:47.234Z,92966.56
2022-10-22T18:01:21.734Z,92962.38
2022-10-22T18:03:48.565Z,92968.19
2022-10-22T18:06:15.518Z,92965.56
2022-10-22T18:08:42.027Z,92970.88
2022-10-22T18:11:10.463Z,92968.78
2022-10-22T18:13:37.117Z,92965.91
2022-10-22T18:16:04.561Z,92965.09
2022-10-22T18:18:31.078Z,92971.69
2022-10-22T18:20:58.365Z,92970.41
2022-10-22T18:23:24.815Z,92956.69
2022-10-22T18:25:51.266Z,92963.81
2022-10-22T18:28:19.166Z,92958.81
2022-10-22T18:30:48.536Z,92973.31
2022-10-22T18:33:17.214Z,92968.31
2022-10-22T18:35:45.817Z,92969.88
2022-10-22T18:38:12.341Z,92969.63
2022-10-22T18:40:48.197Z,92969.91
2022-10-22T18:43:15.227Z,92972.03
2022-10-22T18:45:46.321Z,92968.84
2022-10-22T18:48:15.299Z,92969.38
2022-10-22T18:50:42.002Z,92976.75
2022-10-22T18:53:08.419Z,92981.00
2022-10-22T18:55:39.519Z,92982.06
2022-10-22T18:58:06.471Z,92986.78
2022-10-22T19:00:34.866Z,92976.78
2022-10-22T19:03:03.050Z,92981.50
2022-10-22T19:05:29.457Z,92980.97
2022-10-22T19:07:55.842Z,92974.94
2022-10-22T19:10:22.303Z,92981.75
2022-10-22T19:12:48.677Z,92972.00
2022-10-22T19:15:15.115Z,92974.94
2022-10-22T19:17:41.836Z,92974.66
2022-10-22T19:20:09.095Z,92971.50
2022-10-22T19:22:35.589Z,92973.59
2022-10-22T19:25:02.100Z,92972.56
2022-10-22T19:27:28.568Z,92967.28
2022-10-22T19:29:55.052Z,92970.97
2022-10-22T19:32:21.684Z,92972.53
2022-10-22T19:34:48.113Z,92969.91
2022-10-22T19:37:14.731Z,92960.69
2022-10-22T19:39:41.380Z,92963.03
2022-10-22T19:42:07.821Z,92960.94
2022-10-22T19:44:34.273Z,92963.03
2022-10-22T19:47:00.658Z,92964.63
2022-10-22T19:49:27.051Z,92962.75
2022-10-22T19:51:53.457Z,92962.53
2022-10-22T19:54:20.384Z,92969.34
2022-10-22T19:56:47.798Z,92966.72
2022-10-22T19:59:16.290Z,92966.97
2022-10-22T20:01:43.183Z,92964.59
2022-10-22T20:04:15.008Z,92961.44
2022-10-22T20:06:41.571Z,92958.28
2022-10-22T20:09:08.151Z,92963.00
2022-10-22T20:11:34.831Z,92961.72
2022-10-22T20:14:01.429Z,92965.63
2022-10-22T20:16:29.910Z,92969.28
2022-10-22T20:19:01.834Z,92969.75
2022-10-22T20:21:28.446Z,92969.19
2022-10-22T20:23:57.227Z,92976.03
2022-10-22T20:26:28.018Z,92966.81
2022-10-22T20:28:56.056Z,92980.72
2022-10-22T20:31:24.987Z,92970.97
2022-10-22T20:33:51.497Z,92970.97
2022-10-22T20:36:20.881Z,92976.47
2022-10-22T20:38:48.251Z,92964.41
2022-10-22T20:41:20.725Z,92969.59
2022-10-22T20:43:48.809Z,92977.75
2022-10-22T20:46:22.859Z,92983.50
2022-10-22T20:48:52.090Z,92985.31
2022-10-22T20:51:18.761Z,92989.00
2022-10-22T20:53:45.217Z,92980.25
2022-10-22T20:56:12.601Z,92984.69
2022-10-22T20:58:39.245Z,92983.91
2022-10-22T21:01:10.461Z,92989.94
2022-10-22T21:03:37.765Z,92985.19
2022-10-22T21:06:05.312Z,92991.53
2022-10-22T21:08:32.060Z,92989.72
2022-10-22T21:10:58.643Z,92984.47
2022-10-22T21:13:25.048Z,92976.56
2022-10-22T21:15:51.484Z,92976.03
2022-10-22T21:18:17.896Z,92979.97
2022-10-22T21:20:44.295Z,92972.06
2022-10-22T21:23:10.691Z,92966.81
2022-10-22T21:25:40.740Z,92973.84
2022-10-22T21:28:09.756Z,92966.72
2022-10-22T21:30:36.155Z,92964.59
2022-10-22T21:33:02.574Z,92961.44
2022-10-22T21:35:29.431Z,92959.56
2022-10-22T21:37:55.830Z,92961.94
2022-10-22T21:40:22.230Z,92961.66
2022-10-22T21:42:50.365Z,92958.72
2022-10-22T21:45:19.941Z,92953.75
2022-10-22T21:47:48.600Z,92945.09
2022-10-22T21:50:15.138Z,92957.97
2022-10-22T21:52:41.663Z,92951.66
2022-10-22T21:55:08.648Z,92955.28
2022-10-22T21:57:35.151Z,92951.31
2022-10-22T22:00:01.754Z,92949.44
2022-10-22T22:02:31.373Z,92958.59
2022-10-22T22:04:57.822Z,92953.94
2022-10-22T22:07:24.486Z,92949.72
2022-10-22T22:09:50.975Z,92947.03
2022-10-22T22:12:17.868Z,92946.50
2022-10-22T22:14:44.450Z,92942.81
2022-10-22T22:17:11.067Z,92945.66
2022-10-22T22:19:40.197Z,92944.34
2022-10-22T22:22:06.877Z,92937.00
2022-10-22T22:24:33.419Z,92936.94
2022-10-22T22:27:00.098Z,92944.47
2022-10-22T22:29:26.482Z,92933.63
2022-10-22T22:31:52.891Z,92929.00
2022-10-22T22:34:19.397Z,92936.34
2022-10-22T22:36:47.944Z,92936.38
2022-10-22T22:39:17.566Z,92934.09
2022-10-22T22:41:45.005Z,92933.06
2022-10-22T22:44:12.163Z,92923.81
2022-10-22T22:46:38.922Z,92923.75
2022-10-22T22:49:05.958Z,92923.16
2022-10-22T22:51:32.392Z,92924.69
2022-10-22T22:54:00.081Z,92916.81
2022-10-22T22:56:29.447Z,92921.03
2022-10-22T22:58:56.472Z,92923.09
2022-10-22T23:01:32.025Z,92921.22
2022-10-22T23:04:01.417Z,92922.00
2022-10-22T23:06:30.559Z,92922.47
2022-10-22T23:08:57.315Z,92922.19
2022-10-22T23:11:25.488Z,92929.44
2022-10-22T23:13:54.482Z,92923.38
2022-10-22T23:16:23.385Z,92921.78
2022-10-22T23:18:50.749Z,92923.06
2022-10-22T23:21:19.777Z,92927.44
2022-10-22T23:23:49.128Z,92924.53
2022-10-22T23:26:21.765Z,92918.00
2022-10-22T23:28:48.686Z,92918.75
2022-10-22T23:31:17.598Z,92920.28
2022-10-22T23:33:44.544Z,92915.25
2022-10-22T23:36:11.762Z,92922.03
2022-10-22T23:38:39.677Z,92913.44
2022-10-22T23:41:06.925Z,92916.31
2022-10-22T23:43:37.641Z,92918.41
2022-10-22T23:46:05.891Z,92915.56
2022-10-22T23:48:32.439Z,92915.38
2022-10-22T23:51:04.618Z,92909.09
2022-10-22T23:53:31.065Z,92907.69
2022-10-22T23:55:57.473Z,92904.78
2022-10-22T23:58:23.922Z,92906.31
